Time;durP1;ratioP1;P1;durP2;ratioP2;P2;SDS_P1;SDS_P2;PMS_P1;PMS_P2;Temp;Humidity;BMP_temperature;BMP_pressure;BME280_temperature;BME280_humidity;BME280_pressure;Samples;Min_cycle;Max_cycle;Signal;HPM_P1;HPM_P2
2023/07/18 00:00:37;;;;;;;22.55;9.55;;;;;;;21.99;100.00;92922.41;4795670;29;20100;-78
2023/07/18 00:03:04;;;;;;;18.48;9.18;;;;;;;21.97;100.00;92917.41;4800152;29;20069;-78
2023/07/18 00:05:30;;;;;;;17.35;9.25;;;;;;;21.92;100.00;92916.91;4797328;29;20059;-78
2023/07/18 00:07:56;;;;;;;19.25;9.45;;;;;;;21.88;100.00;92930.13;4797651;29;20456;-78
2023/07/18 00:10:22;;;;;;;16.27;8.95;;;;;;;21.85;100.00;92928.19;4791197;29;20045;-78
2023/07/18 00:12:49;;;;;;;18.52;9.05;;;;;;;21.81;100.00;92933.41;4797968;29;20031;-79
2023/07/18 00:15:14;;;;;;;19.83;9.85;;;;;;;21.80;100.00;92917.78;4801371;29;20043;-78
2023/07/18 00:17:41;;;;;;;17.05;9.48;;;;;;;21.78;100.00;92912.78;4800315;29;20098;-79
2023/07/18 00:20:10;;;;;;;20.08;9.88;;;;;;;21.81;100.00;92922.00;4802783;29;20073;-78
2023/07/18 00:22:36;;;;;;;18.30;8.70;;;;;;;21.79;100.00;92917.00;4803570;29;20035;-78
2023/07/18 00:25:02;;;;;;;21.30;10.68;;;;;;;21.76;100.00;92919.59;4806051;29;20064;-78
2023/07/18 00:27:28;;;;;;;21.52;9.55;;;;;;;21.72;100.00;92913.41;4804034;29;20434;-78
2023/07/18 00:29:57;;;;;;;16.70;9.07;;;;;;;21.69;100.00;92912.22;4797997;29;20047;-79
2023/07/18 00:32:23;;;;;;;18.85;9.50;;;;;;;21.64;100.00;92909.81;4802621;29;20039;-79
2023/07/18 00:34:49;;;;;;;16.63;10.10;;;;;;;21.59;100.00;92910.84;4786938;29;20379;-78
2023/07/18 00:37:16;;;;;;;15.88;9.50;;;;;;;21.56;100.00;92908.09;4791764;29;20153;-79
2023/07/18 00:39:42;;;;;;;17.10;9.52;;;;;;;21.53;100.00;92912.22;4796199;29;20030;-78
2023/07/18 00:42:08;;;;;;;18.20;9.77;;;;;;;21.51;100.00;92916.34;4814711;29;20050;-79
2023/07/18 00:44:33;;;;;;;17.08;9.25;;;;;;;21.48;100.00;92909.03;4799519;29;20461;-78
2023/07/18 00:47:00;;;;;;;21.15;10.38;;;;;;;21.45;100.00;92909.72;4807333;29;20061;-77
2023/07/18 00:49:26;;;;;;;18.75;10.18;;;;;;;21.41;100.00;92899.75;4806336;29;20080;-78
2023/07/18 00:51:52;;;;;;;16.45;9.45;;;;;;;21.38;100.00;92900.41;4805839;29;20475;-78
2023/07/18 00:54:18;;;;;;;15.90;9.65;;;;;;;21.33;100.00;92897.22;4798999;29;20066;-78
2023/07/18 00:56:44;;;;;;;18.88;9.98;;;;;;;21.29;100.00;92897.13;4800809;29;20027;-79
2023/07/18 00:59:16;;;;;;;19.98;10.10;;;;;;;21.28;100.00;92898.25;4790448;29;20101;-78
2023/07/18 01:01:43;;;;;;;16.90;9.95;;;;;;;21.27;100.00;92894.03;4799439;29;20039;-78
2023/07/18 01:04:09;;;;;;;18.65;9.43;;;;;;;21.27;100.00;92898.59;4792481;29;20494;-78
2023/07/18 01:06:38;;;;;;;20.15;9.93;;;;;;;21.21;100.00;92896.19;4789343;29;20080;-78
2023/07/18 01:09:05;;;;;;;16.48;9.48;;;;;;;21.20;100.00;92899.97;4804144;29;20483;-78
2023/07/18 01:11:31;;;;;;;16.52;9.45;;;;;;;21.14;100.00;92905.88;4797660;29;20039;-79
2023/07/18 01:13:56;;;;;;;14.95;9.68;;;;;;;21.11;100.00;92895.91;4794855;29;20276;-79
2023/07/18 01:16:23;;;;;;;17.67;9.25;;;;;;;21.11;100.00;92903.91;4790955;29;20062;-78
2023/07/18 01:18:49;;;;;;;17.90;9.70;;;;;;;21.10;100.00;92899.72;4801519;29;20049;-78
2023/07/18 01:21:18;;;;;;;16.40;10.18;;;;;;;21.09;100.00;92903.47;4794589;29;20514;-78
2023/07/18 01:23:45;;;;;;;16.80;9.73;;;;;;;21.06;100.00;92909.47;4800828;29;20039;-78
2023/07/18 01:26:15;;;;;;;17.42;9.52;;;;;;;21.02;100.00;92896.06;4798135;29;20045;-78
2023/07/18 01:28:41;;;;;;;18.85;9.30;;;;;;;21.00;100.00;92893.75;4802935;29;20042;-78
2023/07/18 01:31:07;;;;;;;19.85;10.07;;;;;;;20.98;100.00;92890.69;4796963;29;20046;-79
2023/07/18 01:33:33;;;;;;;20.95;10.70;;;;;;;20.97;100.00;92893.66;4805032;29;20043;-78
2023/07/18 01:36:00;;;;;;;17.75;9.00;;;;;;;20.96;100.00;92897.44;4797825;29;20054;-77
2023/07/18 01:38:29;;;;;;;16.98;9.77;;;;;;;20.93;100.00;92884.81;4816574;29;20066;-77
2023/07/18 01:40:56;;;;;;;17.42;9.60;;;;;;;20.88;100.00;92887.72;4788488;29;20316;-76
2023/07/18 01:43:22;;;;;;;19.42;10.55;;;;;;;20.86;100.00;92893.38;4800890;29;20695;-76
2023/07/18 01:45:48;;;;;;;19.35;10.23;;;;;;;20.85;100.00;92899.03;4799702;29;20047;-77
2023/07/18 01:48:14;;;;;;;15.80;9.93;;;;;;;20.84;100.00;92892.94;4802123;29;20122;-77
2023/07/18 01:50:41;;;;;;;18.27;9.57;;;;;;;20.82;100.00;92894.41;4791353;29;20043;-77
2023/07/18 01:53:06;;;;;;;15.80;9.25;;;;;;;20.80;100.00;92897.41;4805250;29;20087;-77
2023/07/18 01:55:32;;;;;;;17.25;9.18;;;;;;;20.78;100.00;92892.44;4798587;29;20039;-76
2023/07/18 01:58:00;;;;;;;15.90;9.60;;;;;;;20.77;100.00;92898.09;4789845;29;20046;-77
2023/07/18 02:00:26;;;;;;;16.10;9.15;;;;;;;20.77;100.00;92892.75;4796755;29;20138;-76
2023/07/18 02:02:53;;;;;;;22.48;9.50;;;;;;;20.78;100.00;92889.78;4802724;29;20401;-76
2023/07/18 02:05:24;;;;;;;16.65;10.18;;;;;;;20.76;100.00;92888.53;4799830;29;20061;-77
2023/07/18 02:07:50;;;;;;;23.17;9.70;;;;;;;20.74;100.00;92880.16;4792673;29;20034;-77
2023/07/18 02:10:19;;;;;;;22.15;10.07;;;;;;;20.74;100.00;92888.91;4798409;29;20543;-77
2023/07/18 02:12:45;;;;;;;20.50;10.32;;;;;;;20.74;100.00;92890.78;4798490;29;20094;-76
2023/07/18 02:15:14;;;;;;;22.55;10.02;;;;;;;20.70;100.00;92889.91;4797194;29;20493;-77
2023/07/18 02:17:42;;;;;;;16.58;9.85;;;;;;;20.66;100.00;92889.81;4802177;29;20051;-76
2023/07/18 02:20:11;;;;;;;23.45;9.82;;;;;;;20.66;100.00;92881.06;4799683;29;20413;-77
2023/07/18 02:22:38;;;;;;;19.00;9.98;;;;;;;20.67;100.00;92885.25;4796610;29;20068;-76
2023/07/18 02:25:06;;;;;;;16.70;9.77;;;;;;;20.66;100.00;92889.03;4796500;29;20062;-76
2023/07/18 02:27:40;;;;;;;16.90;9.05;;;;;;;20.65;100.00;92887.47;4806350;29;20103;-77
2023/07/18 02:30:11;;;;;;;16.98;9.75;;;;;;;20.64;100.00;92891.25;4802357;29;20050;-75
2023/07/18 02:32:42;;;;;;;14.65;9.30;;;;;;;20.62;100.00;92890.81;4801536;29;20113;-76
2023/07/18 02:35:08;;;;;;;16.92;9.52;;;;;;;20.61;100.00;92891.94;4803626;29;20039;-76
2023/07/18 02:37:35;;;;;;;13.95;8.50;;;;;;;20.58;100.00;92890.75;4804006;29;20037;-76
2023/07/18 02:40:08;;;;;;;18.17;9.35;;;;;;;20.55;100.00;92891.38;4802460;29;20047;-75
2023/07/18 02:42:36;;;;;;;17.70;9.30;;;;;;;20.53;100.00;92889.03;4788941;29;20096;-76
2023/07/18 02:45:03;;;;;;;17.08;8.88;;;;;;;20.51;100.00;92883.31;4801652;29;20122;-75
2023/07/18 02:47:30;;;;;;;17.70;8.93;;;;;;;20.53;100.00;92888.28;4798773;29;20050;-76
2023/07/18 02:49:55;;;;;;;21.23;9.45;;;;;;;20.50;100.00;92889.72;4799508;29;20502;-76
2023/07/18 02:52:21;;;;;;;15.60;8.98;;;;;;;20.50;100.00;92900.38;4795315;29;20027;-76
2023/07/18 02:54:47;;;;;;;25.92;9.65;;;;;;;20.51;100.00;92893.94;4791624;29;20496;-76
2023/07/18 02:57:13;;;;;;;16.48;8.80;;;;;;;20.50;100.00;92892.38;4816507;29;20131;-75
2023/07/18 02:59:38;;;;;;;19.38;9.10;;;;;;;20.46;100.00;92898.72;4802805;29;20141;-76
2023/07/18 03:02:04;;;;;;;15.80;9.05;;;;;;;20.42;100.00;92893.28;4791662;29;20100;-75
2023/07/18 03:04:30;;;;;;;19.30;9.23;;;;;;;20.39;100.00;92900.06;4794486;29;20138;-75
2023/07/18 03:06:56;;;;;;;15.07;8.70;;;;;;;20.39;100.00;92904.59;4795665;29;20045;-76
2023/07/18 03:09:22;;;;;;;17.60;10.40;;;;;;;20.66;100.00;92903.09;4798328;29;20050;-76
2023/07/18 03:11:51;;;;;;;18.77;11.00;;;;;;;20.66;100.00;92905.78;4791320;29;20043;-76
2023/07/18 03:14:17;;;;;;;15.60;9.18;;;;;;;20.64;100.00;92901.91;4800461;29;20464;-76
2023/07/18 03:16:43;;;;;;;16.30;9.55;;;;;;;20.59;100.00;92898.38;4804094;29;20038;-75
2023/07/18 03:19:10;;;;;;;16.33;9.23;;;;;;;20.56;100.00;92904.38;4791661;29;20054;-76
2023/07/18 03:21:35;;;;;;;18.35;9.80;;;;;;;20.48;100.00;92912.47;4793462;29;20054;-76
2023/07/18 03:24:07;;;;;;;16.38;10.02;;;;;;;20.41;100.00;92913.03;4803710;29;20390;-76
2023/07/18 03:26:37;;;;;;;15.13;9.48;;;;;;;20.36;100.00;92910.63;4802105;29;20427;-75
2023/07/18 03:29:05;;;;;;;15.98;9.30;;;;;;;20.32;100.00;92909.72;4811092;29;20055;-76
2023/07/18 03:31:32;;;;;;;19.63;9.10;;;;;;;20.28;100.00;92908.84;4801595;29;20073;-76
2023/07/18 03:33:58;;;;;;;23.50;9.75;;;;;;;20.24;100.00;92903.44;4795800;29;20050;-75
2023/07/18 03:36:24;;;;;;;15.55;9.60;;;;;;;20.21;100.00;92911.31;4790947;29;20405;-75
2023/07/18 03:38:49;;;;;;;15.60;8.70;;;;;;;20.15;100.00;92908.88;4798827;29;20050;-76
2023/07/18 03:41:15;;;;;;;15.30;9.45;;;;;;;20.12;100.00;92898.91;4803210;29;20486;-76
2023/07/18 03:43:41;;;;;;;17.80;10.85;;;;;;;20.11;100.00;92900.03;4800035;29;20042;-76
2023/07/18 03:46:06;;;;;;;18.27;9.35;;;;;;;20.09;100.00;92896.94;4802276;29;20038;-76
2023/07/18 03:48:32;;;;;;;15.82;9.18;;;;;;;20.09;100.00;92891.63;4795672;29;20189;-76
2023/07/18 03:51:05;;;;;;;18.00;8.63;;;;;;;20.09;100.00;92896.94;4794722;29;20052;-76
2023/07/18 03:53:31;;;;;;;18.88;9.52;;;;;;;20.09;100.00;92902.25;4801552;29;20051;-75
2023/07/18 03:56:04;;;;;;;15.80;9.60;;;;;;;20.09;100.00;92912.09;4802127;29;20502;-76
2023/07/18 03:58:30;;;;;;;19.25;9.27;;;;;;;20.09;100.00;92901.47;4794283;29;20130;-76
2023/07/18 04:00:56;;;;;;;15.85;9.50;;;;;;;20.07;100.00;92909.78;4799031;29;20172;-76
2023/07/18 04:03:26;;;;;;;13.57;8.38;;;;;;;20.08;100.00;92915.84;4799476;29;20059;-75
2023/07/18 04:05:52;;;;;;;18.33;9.13;;;;;;;20.09;100.00;92912.09;4792979;29;20418;-75
2023/07/18 04:08:18;;;;;;;19.70;9.68;;;;;;;20.10;100.00;92919.72;4791259;29;20032;-76
2023/07/18 04:10:44;;;;;;;16.17;9.43;;;;;;;20.11;100.00;92926.59;4798915;29;20051;-76
2023/07/18 04:13:10;;;;;;;19.10;9.15;;;;;;;20.12;100.00;92916.75;4792118;29;20038;-76
2023/07/18 04:15:35;;;;;;;19.80;8.80;;;;;;;20.16;100.00;92922.94;4798180;29;20046;-76
2023/07/18 04:18:01;;;;;;;21.75;10.73;;;;;;;20.18;100.00;92924.16;4796940;29;20039;-76
2023/07/18 04:20:27;;;;;;;16.63;8.73;;;;;;;20.21;100.00;92913.97;4796100;29;20058;-76
2023/07/18 04:22:52;;;;;;;21.35;9.32;;;;;;;20.23;100.00;92919.72;4799162;29;20043;-77
2023/07/18 04:25:21;;;;;;;17.35;9.38;;;;;;;20.25;100.00;92920.16;4796464;29;20032;-77
2023/07/18 04:27:47;;;;;;;16.30;9.45;;;;;;;20.25;100.00;92907.63;4799972;29;20038;-76
2023/07/18 04:30:13;;;;;;;16.50;9.07;;;;;;;20.26;100.00;92921.69;4797268;29;20192;-76
2023/07/18 04:32:43;;;;;;;18.10;8.93;;;;;;;20.27;100.00;92917.94;4801209;29;20089;-76
2023/07/18 04:35:09;;;;;;;18.48;9.40;;;;;;;20.33;100.00;92919.25;4798032;29;20099;-77
2023/07/18 04:37:35;;;;;;;19.13;10.02;;;;;;;20.34;100.00;92923.47;4791740;29;20050;-77
2023/07/18 04:40:01;;;;;;;20.27;9.65;;;;;;;20.35;100.00;92919.69;4796341;29;20083;-78
2023/07/18 04:42:27;;;;;;;17.73;9.13;;;;;;;20.36;100.00;92924.66;4795689;29;20085;-77
2023/07/18 04:44:52;;;;;;;18.23;9.52;;;;;;;20.40;100.00;92932.75;4794474;29;20083;-78
2023/07/18 04:47:18;;;;;;;17.67;9.25;;;;;;;20.46;100.00;92936.72;4814127;29;20062;-78
2023/07/18 04:49:44;;;;;;;18.20;9.20;;;;;;;20.50;100.00;92942.16;4798773;29;20042;-80
2023/07/18 04:52:09;;;;;;;15.98;9.15;;;;;;;20.56;100.00;92946.91;4800287;29;20069;-79
2023/07/18 04:54:35;;;;;;;22.23;9.57;;;;;;;20.64;100.00;92941.78;4767502;29;20151;-80
2023/07/18 04:57:01;;;;;;;22.65;9.85;;;;;;;20.71;100.00;92947.31;4797660;29;20066;-80
2023/07/18 04:59:26;;;;;;;20.98;9.68;;;;;;;20.78;100.00;92953.63;4805225;29;20163;-79
2023/07/18 05:01:55;;;;;;;20.50;10.35;;;;;;;20.85;100.00;92947.72;4800636;29;20124;-80
2023/07/18 05:04:20;;;;;;;21.17;9.25;;;;;;;20.90;100.00;92950.13;4799370;29;20443;-80
2023/07/18 05:06:46;;;;;;;16.33;9.20;;;;;;;20.97;100.00;92954.88;4801284;29;20064;-80
2023/07/18 05:09:12;;;;;;;16.20;8.98;;;;;;;21.02;100.00;92959.19;4796766;29;20050;-79
2023/07/18 05:11:38;;;;;;;11.98;8.70;;;;;;;21.07;100.00;92953.59;4801624;29;20039;-79
2023/07/18 05:14:04;;;;;;;14.63;8.23;;;;;;;21.12;100.00;92951.47;4803741;29;20055;-80
2023/07/18 05:16:29;;;;;;;19.52;9.20;;;;;;;21.19;100.00;92951.66;4804751;29;20042;-79
2023/07/18 05:18:55;;;;;;;19.20;8.55;;;;;;;21.28;100.00;92959.50;4800173;29;20491;-80
2023/07/18 05:21:21;;;;;;;16.10;9.40;;;;;;;21.36;100.00;92961.22;4800430;29;20064;-80
2023/07/18 05:23:46;;;;;;;16.27;9.25;;;;;;;21.44;100.00;92956.13;4797319;29;20049;-80
2023/07/18 05:26:12;;;;;;;17.88;9.23;;;;;;;21.52;100.00;92963.16;4797439;29;20452;-79
2023/07/18 05:28:37;;;;;;;17.63;8.68;;;;;;;21.56;100.00;92959.47;4804279;29;20038;-80
2023/07/18 05:31:09;;;;;;;15.68;8.70;;;;;;;21.63;100.00;92958.84;4804251;29;20047;-79
2023/07/18 05:33:35;;;;;;;14.55;8.32;;;;;;;21.71;100.00;92971.25;4798178;29;20043;-80
2023/07/18 05:36:01;;;;;;;16.13;8.95;;;;;;;21.80;100.00;92974.50;4802918;29;20051;-80
2023/07/18 05:38:27;;;;;;;17.80;9.18;;;;;;;21.88;100.00;92977.34;4790209;29;20092;-80
2023/07/18 05:40:53;;;;;;;18.30;9.15;;;;;;;22.00;100.00;92974.59;4802508;29;20072;-81
2023/07/18 05:43:19;;;;;;;16.40;9.55;;;;;;;22.14;100.00;92977.59;4801305;29;20047;-80
2023/07/18 05:45:45;;;;;;;17.17;9.30;;;;;;;22.28;100.00;92973.72;4804102;29;20079;-80
2023/07/18 05:48:10;;;;;;;15.57;9.65;;;;;;;22.41;100.00;92969.81;4802655;29;20030;-81
2023/07/18 05:50:36;;;;;;;18.55;9.55;;;;;;;22.55;100.00;92975.47;4799179;29;20387;-82
2023/07/18 05:53:02;;;;;;;16.15;9.13;;;;;;;22.69;100.00;92980.31;4799212;29;20036;-82
2023/07/18 05:55:27;;;;;;;18.20;8.98;;;;;;;22.84;100.00;92974.16;4794094;29;20046;-83
2023/07/18 05:57:54;;;;;;;21.50;11.02;;;;;;;23.22;100.00;92979.88;4803881;29;20051;-83
2023/07/18 06:00:20;;;;;;;17.15;9.85;;;;;;;23.88;100.00;92981.44;4808054;29;20034;-83
2023/07/18 06:02:47;;;;;;;17.27;9.55;;;;;;;24.52;100.00;92983.56;4805325;29;20038;-84
2023/07/18 06:05:14;;;;;;;17.17;10.15;;;;;;;25.14;100.00;92975.16;4804311;29;20043;-84
2023/07/18 06:07:40;;;;;;;19.67;9.57;;;;;;;25.71;100.00;92983.03;4803843;29;20030;-84
2023/07/18 06:10:07;;;;;;;14.05;8.68;;;;;;;26.24;100.00;92990.03;4804733;29;20097;-84
2023/07/18 06:12:33;;;;;;;17.55;9.32;;;;;;;26.74;100.00;92985.75;4805947;29;20125;-82
2023/07/18 06:14:58;;;;;;;17.58;9.73;;;;;;;27.15;100.00;92985.56;4804191;29;20051;-84
2023/07/18 06:17:24;;;;;;;21.20;9.98;;;;;;;27.56;100.00;92985.34;4808621;29;20108;-84
2023/07/18 06:19:50;;;;;;;20.42;9.70;;;;;;;27.96;100.00;92990.81;4800295;29;20054;-83
2023/07/18 06:22:16;;;;;;;19.88;10.60;;;;;;;28.36;98.93;93002.34;4797817;29;20039;-83
2023/07/18 06:24:41;;;;;;;22.23;10.18;;;;;;;28.62;87.24;93001.19;4803580;29;20039;-83
2023/07/18 06:27:07;;;;;;;20.58;10.52;;;;;;;28.56;90.03;93000.06;4803981;29;20065;-82
2023/07/18 06:29:33;;;;;;;22.05;11.45;;;;;;;27.54;100.00;93014.53;4804497;29;20050;-81
2023/07/18 06:32:00;;;;;;;20.15;11.40;;;;;;;28.14;95.94;93006.97;4809230;29;20474;-82
2023/07/18 06:34:25;;;;;;;18.77;10.90;;;;;;;27.72;98.22;93005.72;4809588;29;20046;-82
2023/07/18 06:36:51;;;;;;;21.55;11.60;;;;;;;27.49;100.00;93019.50;4810216;29;20039;-81
2023/07/18 06:39:16;;;;;;;20.63;12.13;;;;;;;27.71;100.00;93023.78;4811413;29;20051;-82
2023/07/18 06:41:43;;;;;;;19.15;12.02;;;;;;;27.94;100.00;93017.31;4811503;29;20038;-82
2023/07/18 06:44:12;;;;;;;21.10;11.30;;;;;;;28.17;99.79;93022.34;4811696;29;20042;-82
2023/07/18 06:46:37;;;;;;;18.85;11.95;;;;;;;28.20;98.08;93026.97;4801381;29;20050;-82
2023/07/18 06:49:03;;;;;;;22.05;11.68;;;;;;;27.88;98.77;93016.94;4800688;29;20039;-81
2023/07/18 06:51:29;;;;;;;25.23;11.30;;;;;;;27.82;95.69;93018.44;4793420;29;20518;-81
2023/07/18 06:53:55;;;;;;;20.25;10.82;;;;;;;27.55;97.31;93016.06;4786811;29;20080;-81
2023/07/18 06:56:20;;;;;;;19.70;11.48;;;;;;;27.38;100.00;93017.56;4799425;29;20050;-82
2023/07/18 06:58:46;;;;;;;19.33;11.75;;;;;;;27.16;100.00;93013.97;4809248;29;20090;-82
2023/07/18 07:01:12;;;;;;;28.90;12.57;;;;;;;26.66;100.00;93021.78;4810975;29;20296;-82
2023/07/18 07:03:38;;;;;;;27.33;13.00;;;;;;;26.44;100.00;93017.41;4810633;29;20046;-81
2023/07/18 07:06:14;;;;;;;24.05;11.25;;;;;;;26.02;100.00;93013.22;4811078;29;20031;-81
2023/07/18 07:08:39;;;;;;;24.65;11.70;;;;;;;25.85;100.00;93022.63;4805849;29;20517;-80
2023/07/18 07:11:07;;;;;;;26.88;13.55;;;;;;;25.84;100.00;93023.75;4809853;29;20053;-82
2023/07/18 07:13:35;;;;;;;27.92;14.02;;;;;;;25.83;100.00;93014.94;4816439;29;20045;-81
2023/07/18 07:16:01;;;;;;;31.75;13.23;;;;;;;25.93;100.00;93024.25;4810985;29;20065;-80
2023/07/18 07:18:26;;;;;;;26.27;12.48;;;;;;;25.99;100.00;93022.03;4793793;29;20031;-82
2023/07/18 07:20:53;;;;;;;25.90;12.40;;;;;;;26.12;100.00;93026.72;4792632;29;20047;-80
2023/07/18 07:23:19;;;;;;;22.33;12.23;;;;;;;26.15;100.00;93022.53;4803276;29;20047;-80
2023/07/18 07:25:44;;;;;;;23.98;12.82;;;;;;;26.20;100.00;93021.41;4808339;29;20043;-80
2023/07/18 07:28:10;;;;;;;29.35;13.40;;;;;;;26.19;100.00;93017.97;4801665;29;20045;-81
2023/07/18 07:30:35;;;;;;;27.55;13.80;;;;;;;26.05;100.00;93018.63;4803501;29;20031;-80
2023/07/18 07:33:02;;;;;;;27.30;13.07;;;;;;;26.09;100.00;93024.00;4808909;29;20031;-80
2023/07/18 07:35:29;;;;;;;26.33;13.13;;;;;;;26.12;100.00;93024.06;4810990;29;20121;-80
2023/07/18 07:37:55;;;;;;;22.73;13.23;;;;;;;26.18;100.00;93016.41;4807935;29;20409;-80
2023/07/18 07:40:21;;;;;;;21.77;12.73;;;;;;;26.26;100.00;93014.59;4801195;29;20058;-80
2023/07/18 07:42:46;;;;;;;21.67;13.60;;;;;;;26.23;100.00;93021.47;4792396;29;20043;-80
2023/07/18 07:45:13;;;;;;;20.02;12.70;;;;;;;26.28;100.00;93014.97;4776731;29;20031;-82
2023/07/18 07:47:39;;;;;;;32.42;13.73;;;;;;;26.50;100.00;93019.38;4810162;29;20091;-82
2023/07/18 07:50:07;;;;;;;22.40;12.90;;;;;;;26.64;100.00;93021.41;4810366;29;20138;-82
2023/07/18 07:52:33;;;;;;;20.58;12.75;;;;;;;26.60;100.00;93023.28;4802816;29;20404;-80
2023/07/18 07:54:59;;;;;;;20.10;12.30;;;;;;;26.64;100.00;93020.59;4792214;29;20042;-82
2023/07/18 07:57:25;;;;;;;21.60;12.85;;;;;;;26.64;100.00;93024.06;4803130;29;20054;-80
2023/07/18 07:59:51;;;;;;;26.73;12.30;;;;;;;26.77;100.00;93028.00;4810484;29;20039;-81
2023/07/18 08:02:19;;;;;;;23.90;13.73;;;;;;;26.66;100.00;93037.91;4807672;29;20104;-81
2023/07/18 08:04:46;;;;;;;19.67;12.57;;;;;;;26.85;100.00;93022.66;4808922;29;20057;-80
2023/07/18 08:07:12;;;;;;;29.55;12.95;;;;;;;26.66;100.00;93015.63;4801729;29;20051;-81
2023/07/18 08:09:38;;;;;;;25.02;13.38;;;;;;;26.66;100.00;93016.41;4808308;29;20061;-81
2023/07/18 08:12:04;;;;;;;28.58;13.15;;;;;;;26.64;100.00;93018.72;4809858;29;20435;-81
2023/07/18 08:14:32;;;;;;;22.05;11.80;;;;;;;26.95;100.00;93021.94;4808652;29;20051;-81
2023/07/18 08:16:58;;;;;;;24.42;13.20;;;;;;;26.92;100.00;93028.06;4801072;29;20046;-81
2023/07/18 08:19:24;;;;;;;23.27;12.95;;;;;;;26.87;100.00;93031.13;4796885;29;20051;-81
2023/07/18 08:21:49;;;;;;;21.63;12.40;;;;;;;26.90;100.00;93023.06;4805401;29;20043;-81
2023/07/18 08:24:15;;;;;;;20.67;12.05;;;;;;;26.85;100.00;93028.03;4805634;29;20049;-81
2023/07/18 08:26:41;;;;;;;24.85;12.95;;;;;;;26.76;100.00;93026.44;4807301;29;20113;-81
2023/07/18 08:29:06;;;;;;;19.35;12.63;;;;;;;26.67;100.00;93022.56;4805430;29;20069;-81
2023/07/18 08:31:32;;;;;;;27.60;13.30;;;;;;;26.63;100.00;93035.19;4793615;29;20047;-81
2023/07/18 08:33:58;;;;;;;22.23;12.32;;;;;;;26.55;100.00;93039.75;4807777;29;20088;-81
2023/07/18 08:36:25;;;;;;;24.85;12.73;;;;;;;26.51;100.00;93036.22;4804013;29;20096;-81
2023/07/18 08:38:51;;;;;;;22.40;13.02;;;;;;;26.50;100.00;93034.66;4800515;29;20039;-80
2023/07/18 08:41:19;;;;;;;22.88;13.32;;;;;;;26.69;100.00;93042.50;4800086;29;20141;-82
2023/07/18 08:48:50;;;;;;;24.30;13.13;;;;;;;26.91;100.00;93039.97;4820138;29;20494;-78
2023/07/18 08:51:15;;;;;;;26.30;12.30;;;;;;;26.90;100.00;93038.41;4804476;29;20039;-77
2023/07/18 08:53:41;;;;;;;30.52;13.38;;;;;;;26.76;100.00;93041.78;4805006;29;20106;-78
2023/07/18 08:56:10;;;;;;;28.60;13.15;;;;;;;26.82;100.00;93042.19;4819509;29;20547;-78
2023/07/18 08:58:37;;;;;;;26.27;12.73;;;;;;;26.87;100.00;93041.84;4804370;29;20050;-78
2023/07/18 09:01:06;;;;;;;20.23;11.85;;;;;;;27.12;94.44;93044.66;4813023;29;20077;-78
2023/07/18 09:03:32;;;;;;;20.60;12.20;;;;;;;27.18;97.06;93041.25;4821046;29;20039;-78
2023/07/18 09:06:01;;;;;;;22.35;11.57;;;;;;;27.19;100.00;93037.41;4812959;29;20121;-78
2023/07/18 09:08:27;;;;;;;21.50;12.85;;;;;;;27.22;100.00;93037.81;4807292;29;20400;-78
2023/07/18 09:11:12;;;;;;;20.63;13.13;;;;;;;27.11;100.00;93037.75;4805875;29;20039;-78
2023/07/18 09:13:40;;;;;;;20.05;11.57;;;;;;;27.19;99.77;93042.00;4805622;29;20083;-78
2023/07/18 09:16:17;;;;;;;25.50;13.32;;;;;;;27.09;100.00;93038.13;4805599;29;20038;-78
2023/07/18 09:19:03;;;;;;;22.65;13.20;;;;;;;27.14;100.00;93032.41;4805272;29;20045;-78
2023/07/18 09:21:31;;;;;;;27.52;12.38;;;;;;;27.24;100.00;93030.16;4792768;29;20158;-78
2023/07/18 09:23:57;;;;;;;22.92;11.93;;;;;;;27.09;94.87;93035.44;4806273;29;20078;-78
2023/07/18 09:26:22;;;;;;;23.02;12.20;;;;;;;27.02;98.62;93034.63;4789582;29;20046;-78
2023/07/18 09:28:51;;;;;;;29.38;11.98;;;;;;;27.03;98.26;93031.56;4805943;29;20046;-78
2023/07/18 09:31:23;;;;;;;20.13;12.38;;;;;;;27.03;98.56;93034.25;4805823;29;20047;-78
2023/07/18 09:33:51;;;;;;;21.70;11.35;;;;;;;26.97;93.89;93035.75;4801397;29;20148;-78
2023/07/18 09:36:18;;;;;;;19.20;12.07;;;;;;;27.31;93.86;93032.88;4806310;29;20038;-77
2023/07/18 09:38:46;;;;;;;22.63;11.40;;;;;;;27.25;94.31;93035.16;4813420;29;20039;-77
2023/07/18 09:41:13;;;;;;;28.30;11.45;;;;;;;27.34;94.84;93034.81;4810119;29;20057;-77
2023/07/18 09:43:40;;;;;;;27.38;12.07;;;;;;;27.53;97.63;93031.78;4811666;29;20043;-77
2023/07/18 09:46:10;;;;;;;25.17;12.70;;;;;;;27.50;95.83;93029.88;4807807;29;20091;-78
2023/07/18 09:48:37;;;;;;;23.98;12.18;;;;;;;27.81;98.64;93027.66;4793765;29;20047;-78
2023/07/18 09:51:06;;;;;;;21.95;12.13;;;;;;;27.84;94.39;93024.22;4805410;29;20072;-78
2023/07/18 09:53:33;;;;;;;23.95;13.05;;;;;;;27.77;95.46;93037.63;4804113;29;20027;-78
2023/07/18 09:56:00;;;;;;;22.98;12.40;;;;;;;27.75;95.21;93032.63;4788654;29;20091;-78
2023/07/18 09:58:27;;;;;;;19.45;13.00;;;;;;;27.79;93.52;93019.19;4792901;29;20073;-78
2023/07/18 10:00:56;;;;;;;20.13;12.18;;;;;;;27.68;95.73;93018.41;4798469;29;20035;-77
2023/07/18 10:03:22;;;;;;;20.08;12.05;;;;;;;27.84;96.66;93016.16;4812963;29;20060;-78
2023/07/18 10:05:49;;;;;;;20.60;12.07;;;;;;;27.70;96.17;93016.13;4800667;29;20047;-78
2023/07/18 10:08:15;;;;;;;16.08;10.85;;;;;;;27.76;96.50;93020.75;4793738;29;20139;-78
2023/07/18 10:10:41;;;;;;;21.95;12.07;;;;;;;27.56;94.01;93012.25;4789839;29;20496;-77
2023/07/18 10:13:07;;;;;;;20.92;10.82;;;;;;;27.74;96.31;93012.28;4795900;29;20035;-77
2023/07/18 10:16:13;;;;;;;23.05;11.20;;;;;;;27.92;96.64;93023.09;4799348;29;20138;-79
2023/07/18 10:18:46;;;;;;;21.73;12.23;;;;;;;28.11;94.00;93013.13;4800251;29;20038;-78
2023/07/18 10:21:14;;;;;;;20.23;11.57;;;;;;;28.22;93.32;93016.56;4804622;29;20051;-77
2023/07/18 10:23:43;;;;;;;21.48;12.10;;;;;;;28.13;92.69;93018.88;4777918;29;20133;-78
2023/07/18 10:26:09;;;;;;;23.55;11.85;;;;;;;28.07;96.21;93012.34;4809031;29;20049;-77
2023/07/18 10:28:45;;;;;;;21.73;12.43;;;;;;;28.05;92.49;93004.63;4803208;29;20074;-78
2023/07/18 10:31:33;;;;;;;26.20;12.07;;;;;;;28.19;95.42;93001.19;4808192;29;20053;-78
2023/07/18 10:34:11;;;;;;;22.08;12.32;;;;;;;28.24;89.83;93006.19;4807630;29;20038;-78
2023/07/18 10:36:37;;;;;;;20.67;11.65;;;;;;;28.36;94.59;93007.72;4808356;29;20039;-78
2023/07/18 10:39:12;;;;;;;24.95;12.65;;;;;;;28.31;91.40;93000.81;4803535;29;20053;-78
2023/07/18 10:41:45;;;;;;;22.63;12.82;;;;;;;28.38;92.17;93008.13;4808743;29;20058;-77
2023/07/18 10:44:12;;;;;;;27.13;12.55;;;;;;;28.15;96.98;92998.50;4806258;29;20413;-78
2023/07/18 10:46:39;;;;;;;26.20;13.13;;;;;;;28.22;91.34;92995.03;4806452;29;20440;-78
2023/07/18 10:49:06;;;;;;;27.92;13.50;;;;;;;28.40;92.55;92987.72;4805753;29;20045;-77
2023/07/18 10:51:33;;;;;;;24.85;13.10;;;;;;;28.21;93.44;92985.41;4806776;29;20046;-77
2023/07/18 10:53:59;;;;;;;22.45;12.57;;;;;;;28.28;89.99;92993.50;4815861;29;20070;-76
2023/07/18 10:56:26;;;;;;;19.45;12.23;;;;;;;28.26;92.25;92981.56;4806903;29;20038;-78
2023/07/18 10:58:52;;;;;;;25.38;13.25;;;;;;;28.43;90.29;92978.88;4806564;29;20407;-76
2023/07/18 11:01:18;;;;;;;23.73;12.63;;;;;;;28.31;91.41;92968.50;4806505;29;20042;-80
2023/07/18 11:03:47;;;;;;;21.67;11.32;;;;;;;28.22;91.10;92960.06;4806696;29;20054;-76
2023/07/18 11:06:16;;;;;;;24.90;11.85;;;;;;;28.29;88.96;92960.03;4804991;29;20038;-77
2023/07/18 11:08:45;;;;;;;18.65;12.95;;;;;;;28.28;91.78;92952.34;4813241;29;20521;-76
2023/07/18 11:11:14;;;;;;;22.23;13.23;;;;;;;28.43;90.83;92953.88;4805006;29;20043;-76
2023/07/18 11:13:43;;;;;;;26.50;12.80;;;;;;;28.50;91.42;92959.28;4801008;29;20062;-80
2023/07/18 11:16:14;;;;;;;24.60;12.95;;;;;;;28.53;90.58;92957.72;4805277;29;20052;-78
2023/07/18 11:18:50;;;;;;;22.85;13.20;;;;;;;28.61;89.13;92948.47;4808323;29;20176;-78